Albany, Ohio
Current Conditions -  °F | °C
As of 4:35 AM on Monday 24 Nov 2014 (Local Time) from KUNI Reporting Station
Overcast Overcast  
Wind Chill: 60°   Ceiling: 3000
Heat Index: 60°   Visibility: 10mi
Dew Point: 55°   Wind: 10mph
Humidity: 82%   Direction: 220°SW
Pressure: 29.43"   Gusts: 20mph
Location:  39.23°N, 82.2°W
Report Text: KUNI 240935Z AUTO 22009G17KT 10SM BKN030 OVC036 16/13 A2943 RMK AO2 P0001 T01550125
Loading
Personal Weather Stations






























Interactive Weather Map New forecast layout! Learn more

10-Day Weather Forecast

Advertisements
Track Severe Weather on mobile